Time;durP1;ratioP1;P1;durP2;ratioP2;P2;SDS_P1;SDS_P2;PMS_P1;PMS_P2;Temp;Humidity;BMP_temperature;BMP_pressure;BME280_temperature;BME280_humidity;BME280_pressure;Samples;Min_cycle;Max_cycle;Signal;HPM_P1;HPM_P2
2022/01/01 00:00:57;;;;;;;34.70;16.80;;;;;;;12.14;100.00;102281.63;5285438;28;20101;-88
2022/01/01 00:03:28;;;;;;;32.60;16.17;;;;;;;12.12;100.00;102284.41;5297940;28;20463;-88
2022/01/01 00:05:59;;;;;;;32.03;14.25;;;;;;;12.18;100.00;102288.41;5284073;28;20040;-89
2022/01/01 00:08:31;;;;;;;42.90;27.63;;;;;;;12.09;100.00;102293.50;5285577;28;20033;-88
2022/01/01 00:11:02;;;;;;;31.95;15.38;;;;;;;12.12;100.00;102303.13;5283416;28;20040;-88
2022/01/01 00:13:33;;;;;;;37.50;16.40;;;;;;;12.18;100.00;102301.78;5285374;28;20025;-88
2022/01/01 00:16:09;;;;;;;32.58;15.00;;;;;;;12.20;100.00;102303.41;5284726;28;20033;-88
2022/01/01 00:18:40;;;;;;;36.23;17.20;;;;;;;12.18;100.00;102302.63;5282737;28;20032;-88
2022/01/01 00:21:12;;;;;;;32.72;15.07;;;;;;;12.17;100.00;102300.09;5284632;28;20017;-89
2022/01/01 00:23:43;;;;;;;36.10;15.60;;;;;;;12.20;100.00;102300.72;5285052;28;20540;-89
2022/01/01 00:26:14;;;;;;;30.30;13.82;;;;;;;12.18;100.00;102305.31;5284308;28;20070;-88
2022/01/01 00:28:46;;;;;;;32.58;14.52;;;;;;;12.15;100.00;102307.38;5284900;28;20039;-89
2022/01/01 00:31:18;;;;;;;33.67;13.52;;;;;;;12.14;100.00;102308.34;5301605;28;20075;-89
2022/01/01 00:33:49;;;;;;;31.58;13.40;;;;;;;12.09;100.00;102301.53;5308610;28;20021;-88
2022/01/01 00:36:20;;;;;;;34.25;13.65;;;;;;;12.09;100.00;102309.53;5306159;28;20107;-88
2022/01/01 00:38:52;;;;;;;29.02;12.95;;;;;;;12.17;100.00;102314.31;5312477;28;20021;-88
2022/01/01 00:41:23;;;;;;;35.95;14.02;;;;;;;12.15;100.00;102302.03;5311323;28;20025;-89
2022/01/01 00:43:55;;;;;;;31.88;14.10;;;;;;;12.12;100.00;102304.97;5305729;28;20020;-89
2022/01/01 00:46:26;;;;;;;31.42;14.10;;;;;;;12.08;100.00;102299.84;5305493;28;20501;-88
2022/01/01 00:48:57;;;;;;;28.17;14.27;;;;;;;12.09;100.00;102298.00;5305699;28;20375;-88
2022/01/01 00:51:29;;;;;;;27.45;12.07;;;;;;;12.07;100.00;102292.75;5305377;28;20020;-88
2022/01/01 00:54:00;;;;;;;35.42;13.32;;;;;;;12.04;100.00;102285.00;5305598;28;20012;-89
2022/01/01 00:56:31;;;;;;;33.00;14.88;;;;;;;12.09;100.00;102300.69;5305771;28;20044;-88
2022/01/01 00:59:03;;;;;;;33.33;14.25;;;;;;;12.02;100.00;102300.28;5304189;28;20115;-89
2022/01/01 01:01:36;;;;;;;30.35;12.93;;;;;;;12.02;100.00;102305.63;5304239;28;20029;-89
2022/01/01 01:04:08;;;;;;;37.47;13.77;;;;;;;12.01;100.00;102305.75;5303030;28;20045;-88
2022/01/01 01:06:39;;;;;;;31.73;14.25;;;;;;;12.01;100.00;102305.75;5305414;28;20498;-88
2022/01/01 01:09:11;;;;;;;31.05;13.70;;;;;;;11.99;100.00;102299.66;5305022;28;20478;-89
2022/01/01 01:11:45;;;;;;;31.33;12.30;;;;;;;11.99;100.00;102302.34;5305132;28;20028;-88
2022/01/01 01:14:22;;;;;;;36.22;16.42;;;;;;;11.96;100.00;102302.59;5305371;28;20025;-88
2022/01/01 01:16:54;;;;;;;34.13;13.40;;;;;;;11.99;100.00;102310.34;5303472;28;20025;-88
2022/01/01 01:19:25;;;;;;;31.65;14.68;;;;;;;12.00;100.00;102306.72;5305286;28;20104;-88
2022/01/01 01:21:57;;;;;;;31.90;14.00;;;;;;;12.00;100.00;102299.56;5305384;28;20123;-88
2022/01/01 01:24:29;;;;;;;35.25;13.68;;;;;;;12.02;100.00;102302.97;5303354;28;20039;-88
2022/01/01 01:27:02;;;;;;;29.00;12.48;;;;;;;12.02;100.00;102308.31;5305739;28;20021;-88
2022/01/01 01:29:38;;;;;;;33.67;14.38;;;;;;;12.04;100.00;102302.84;5302942;28;20021;-88
2022/01/01 01:32:09;;;;;;;35.85;13.63;;;;;;;12.00;100.00;102304.91;5308653;28;20091;-88
2022/01/01 01:34:40;;;;;;;34.08;14.95;;;;;;;11.98;100.00;102298.81;5312881;28;20123;-89
2022/01/01 01:37:11;;;;;;;37.22;15.02;;;;;;;12.02;100.00;102308.31;5305830;28;20111;-88
2022/01/01 01:39:43;;;;;;;37.13;14.70;;;;;;;11.98;100.00;102308.69;5306166;28;20328;-88
2022/01/01 01:42:14;;;;;;;38.58;17.08;;;;;;;11.97;100.00;102318.50;5305505;28;20012;-88
2022/01/01 01:44:48;;;;;;;43.45;15.52;;;;;;;11.85;100.00;102314.03;5306079;28;20020;-88
2022/01/01 01:47:30;;;;;;;28.85;13.57;;;;;;;11.85;100.00;102325.59;5304115;28;20509;-88
2022/01/01 01:50:05;;;;;;;33.17;13.70;;;;;;;11.89;100.00;102334.25;5304547;28;20291;-88
2022/01/01 01:52:39;;;;;;;35.50;14.32;;;;;;;11.91;100.00;102332.34;5304268;28;20069;-88
2022/01/01 01:55:11;;;;;;;33.58;14.80;;;;;;;11.93;100.00;102341.09;5304662;28;20382;-88
2022/01/01 01:57:43;;;;;;;30.42;13.52;;;;;;;11.94;100.00;102336.59;5303583;28;20485;-88
2022/01/01 02:03:09;;;;;;;30.45;13.63;;;;;;;11.95;100.00;102338.31;5303510;28;20080;-88
2022/01/01 02:05:41;;;;;;;34.08;13.68;;;;;;;11.90;100.00;102326.16;5304715;28;20019;-88
2022/01/01 02:08:14;;;;;;;27.23;14.02;;;;;;;11.94;100.00;102321.41;5304413;28;20112;-88
2022/01/01 02:10:51;;;;;;;30.95;13.57;;;;;;;11.93;100.00;102337.56;5305192;28;20486;-88
2022/01/01 02:13:47;;;;;;;;;;;;;;;12.00;100.00;102325.44;5302529;28;20029;-89
2022/01/01 02:18:54;;;;;;;30.63;13.43;;;;;;;11.95;100.00;102332.97;5303463;28;20028;-88
2022/01/01 02:21:26;;;;;;;29.73;15.02;;;;;;;11.98;100.00;102324.72;5303898;28;20032;-89
2022/01/01 02:23:59;;;;;;;39.22;18.50;;;;;;;12.00;100.00;102322.78;5302579;28;20477;-88
2022/01/01 02:26:33;;;;;;;33.20;14.38;;;;;;;12.01;100.00;102309.28;5304468;28;20756;-88
2022/01/01 02:29:07;;;;;;;36.17;14.88;;;;;;;12.03;100.00;102323.41;5303782;28;20036;-88
2022/01/01 02:31:38;;;;;;;32.90;14.27;;;;;;;12.03;100.00;102314.53;5304053;28;20025;-88
2022/01/01 02:34:11;;;;;;;23.88;14.48;;;;;;;12.05;100.00;102325.97;5304321;28;20445;-88
2022/01/01 02:36:43;;;;;;;31.27;14.40;;;;;;;12.04;100.00;102316.22;5303239;28;20119;-89
2022/01/01 02:39:18;;;;;;;29.50;15.00;;;;;;;12.03;100.00;102315.38;5304033;28;20021;-88
2022/01/01 02:41:51;;;;;;;29.15;14.05;;;;;;;12.06;100.00;102323.16;5303573;28;20024;-88
2022/01/01 02:44:25;;;;;;;25.95;14.65;;;;;;;12.05;100.00;102326.81;5302447;28;20123;-85
2022/01/01 02:46:56;;;;;;;25.42;14.48;;;;;;;12.03;100.00;102328.75;5303906;28;20033;-85
2022/01/01 02:49:28;;;;;;;30.83;14.50;;;;;;;12.03;100.00;102319.88;5304160;28;20388;-88
2022/01/01 02:51:59;;;;;;;33.42;15.68;;;;;;;12.04;100.00;102318.88;5302602;28;20037;-85
2022/01/01 02:54:30;;;;;;;30.35;15.65;;;;;;;12.05;100.00;102310.75;5303567;28;20452;-88
2022/01/01 02:57:02;;;;;;;31.17;15.48;;;;;;;12.04;100.00;102309.06;5303878;28;20425;-87
2022/01/01 02:59:33;;;;;;;29.25;15.05;;;;;;;12.03;100.00;102293.97;5304653;28;20044;-85
2022/01/01 03:02:04;;;;;;;26.10;14.38;;;;;;;12.05;100.00;102297.38;5305041;28;20060;-85
2022/01/01 03:04:36;;;;;;;41.30;17.48;;;;;;;12.01;100.00;102289.69;5303911;28;20505;-88
2022/01/01 03:07:07;;;;;;;22.17;15.45;;;;;;;12.01;100.00;102284.34;5309656;28;20027;-88
2022/01/01 03:09:38;;;;;;;23.98;14.70;;;;;;;12.02;100.00;102300.28;5313463;28;20028;-85
2022/01/01 03:12:12;;;;;;;30.20;15.45;;;;;;;12.02;100.00;102300.28;5315077;28;20032;-85
2022/01/01 03:14:44;;;;;;;27.65;15.35;;;;;;;12.04;100.00;102302.84;5311011;28;20536;-86
2022/01/01 03:17:15;;;;;;;26.00;15.73;;;;;;;12.00;100.00;102291.53;5314205;28;20024;-88
2022/01/01 03:19:47;;;;;;;29.65;14.93;;;;;;;11.99;100.00;102297.00;5311447;28;20352;-88
2022/01/01 03:22:18;;;;;;;29.67;15.27;;;;;;;12.02;100.00;102305.63;5312459;28;20095;-87
2022/01/01 03:24:50;;;;;;;26.00;15.35;;;;;;;12.00;100.00;102294.19;5309825;28;20009;-87
2022/01/01 03:27:22;;;;;;;28.38;14.48;;;;;;;11.98;100.00;102289.97;5309104;28;20024;-88
2022/01/01 03:29:53;;;;;;;24.40;13.95;;;;;;;11.98;100.00;102282.78;5307782;28;20354;-88
2022/01/01 03:32:24;;;;;;;23.02;13.07;;;;;;;12.03;100.00;102287.78;5306679;28;20016;-88
2022/01/01 03:34:56;;;;;;;25.70;13.48;;;;;;;11.99;100.00;102278.28;5306322;28;20017;-88
2022/01/01 03:37:28;;;;;;;26.67;13.45;;;;;;;12.03;100.00;102290.47;5306804;28;20054;-88
2022/01/01 03:39:59;;;;;;;26.45;13.82;;;;;;;11.99;100.00;102284.50;5305167;28;20024;-87
2022/01/01 03:42:31;;;;;;;32.13;13.50;;;;;;;12.03;100.00;102293.13;5306998;28;20235;-87
2022/01/01 03:45:03;;;;;;;26.17;12.73;;;;;;;12.02;100.00;102286.91;5305110;28;20021;-88
2022/01/01 03:47:34;;;;;;;24.95;11.95;;;;;;;11.96;100.00;102283.88;5306270;28;20118;-88
2022/01/01 03:50:06;;;;;;;23.15;11.68;;;;;;;11.93;100.00;102278.75;5306261;28;20017;-87
2022/01/01 03:52:42;;;;;;;25.73;14.73;;;;;;;11.94;100.00;102281.31;5287395;28;20025;-88
2022/01/01 03:55:14;;;;;;;17.83;10.57;;;;;;;12.00;100.00;102280.00;5285182;28;20024;-88
2022/01/01 03:57:45;;;;;;;25.55;11.07;;;;;;;12.01;100.00;102282.56;5285350;28;20025;-88
2022/01/01 04:00:17;;;;;;;27.02;11.75;;;;;;;12.02;100.00;102280.72;5285412;28;20021;-88
2022/01/01 04:02:48;;;;;;;19.65;10.43;;;;;;;12.03;100.00;102267.22;5297460;28;20077;-88
2022/01/01 04:05:20;;;;;;;22.00;10.40;;;;;;;12.02;100.00;102275.38;5306008;28;20021;-88
2022/01/01 04:07:51;;;;;;;20.77;9.90;;;;;;;12.03;100.00;102283.28;5304618;28;20029;-88
2022/01/01 04:10:23;;;;;;;19.20;9.65;;;;;;;11.99;100.00;102278.28;5304364;28;20421;-88
2022/01/01 04:12:54;;;;;;;23.02;8.88;;;;;;;12.02;100.00;102276.22;5305771;28;20019;-88
2022/01/01 04:15:27;;;;;;;15.75;9.27;;;;;;;12.07;100.00;102276.72;5305819;28;20085;-88
2022/01/01 04:18:02;;;;;;;21.50;9.27;;;;;;;12.04;100.00;102276.09;5305275;28;20020;-88
2022/01/01 04:20:33;;;;;;;20.75;8.55;;;;;;;11.99;100.00;102283.63;5305179;28;20377;-88
2022/01/01 04:23:09;;;;;;;16.90;8.57;;;;;;;12.03;100.00;102269.91;5305500;28;20027;-88
2022/01/01 04:25:40;;;;;;;18.95;9.07;;;;;;;12.12;100.00;102272.84;5305495;28;20191;-87
2022/01/01 04:28:12;;;;;;;20.08;8.00;;;;;;;12.10;100.00;102260.44;5304820;28;20475;-86
2022/01/01 04:30:43;;;;;;;19.73;8.57;;;;;;;12.16;100.00;102267.13;5310513;28;20013;-89
2022/01/01 04:33:15;;;;;;;23.85;8.25;;;;;;;12.18;100.00;102277.72;5319386;28;20058;-87
2022/01/01 04:35:46;;;;;;;16.02;7.93;;;;;;;12.20;100.00;102289.16;5330145;28;20012;-87
2022/01/01 04:38:37;;;;;;;16.73;8.77;;;;;;;12.17;100.00;102270.69;5326135;28;20020;-87
2022/01/01 04:41:12;;;;;;;18.75;8.35;;;;;;;12.20;100.00;102282.00;5327403;28;20039;-87
2022/01/01 04:43:46;;;;;;;15.40;7.82;;;;;;;12.21;100.00;102294.38;5310065;28;20016;-87
2022/01/01 04:46:17;;;;;;;20.35;8.10;;;;;;;12.21;100.00;102288.19;5308282;28;20557;-88
2022/01/01 04:48:48;;;;;;;20.38;8.10;;;;;;;12.21;100.00;102288.19;5306296;28;20021;-88
2022/01/01 04:51:20;;;;;;;17.65;8.20;;;;;;;12.18;100.00;102285.75;5307093;28;20032;-88
2022/01/01 04:53:58;;;;;;;20.33;8.25;;;;;;;12.19;100.00;102299.00;5306685;28;20037;-88
2022/01/01 04:56:32;;;;;;;16.65;8.43;;;;;;;12.15;100.00;102292.19;5306097;28;20028;-88
2022/01/01 04:59:04;;;;;;;17.92;8.52;;;;;;;12.21;100.00;102296.22;5304334;28;20031;-88
2022/01/01 05:01:35;;;;;;;17.70;8.32;;;;;;;12.17;100.00;102292.09;5306388;28;20526;-88
2022/01/01 05:04:07;;;;;;;18.05;8.15;;;;;;;12.13;100.00;102287.91;5305795;28;20799;-88
2022/01/01 05:06:41;;;;;;;16.77;8.43;;;;;;;12.16;100.00;102298.38;5305518;28;20079;-88
2022/01/01 05:09:12;;;;;;;15.85;7.80;;;;;;;12.14;100.00;102295.84;5303871;28;20021;-88
2022/01/01 05:11:44;;;;;;;18.02;8.35;;;;;;;12.14;100.00;102293.16;5305009;28;20374;-88
2022/01/01 05:14:16;;;;;;;21.52;8.98;;;;;;;12.14;100.00;102298.50;5304867;28;20086;-88
2022/01/01 05:16:48;;;;;;;21.70;8.82;;;;;;;12.16;100.00;102301.91;5305419;28;20040;-88
2022/01/01 05:19:19;;;;;;;19.50;8.07;;;;;;;12.13;100.00;102301.28;5304761;28;20032;-88
2022/01/01 05:21:55;;;;;;;17.00;7.50;;;;;;;12.11;100.00;102312.09;5303902;28;20028;-88
2022/01/01 05:24:26;;;;;;;15.75;8.10;;;;;;;12.09;100.00;102298.84;5304000;28;20025;-87
2022/01/01 05:26:57;;;;;;;20.15;8.10;;;;;;;12.13;100.00;102320.00;5305706;28;20027;-88
2022/01/01 05:29:29;;;;;;;14.88;8.10;;;;;;;12.07;100.00;102308.81;5305706;28;20016;-88
2022/01/01 05:32:00;;;;;;;14.30;8.02;;;;;;;12.07;100.00;102305.28;5303948;28;20083;-88
2022/01/01 05:34:31;;;;;;;17.90;7.43;;;;;;;12.08;100.00;102315.03;5303409;28;20850;-88
2022/01/01 05:37:03;;;;;;;13.68;7.88;;;;;;;12.04;100.00;102306.41;5305078;28;20028;-87
2022/01/01 05:39:34;;;;;;;17.08;8.45;;;;;;;12.02;100.00;102304.78;5304276;28;20047;-88
2022/01/01 05:42:06;;;;;;;21.45;8.15;;;;;;;12.00;100.00;102304.06;5303442;28;20115;-88
2022/01/01 05:44:37;;;;;;;16.75;8.27;;;;;;;12.03;100.00;102310.03;5305551;28;20076;-88
2022/01/01 05:47:09;;;;;;;16.27;7.65;;;;;;;11.99;100.00;102307.69;5304728;28;20031;-87
2022/01/01 05:49:40;;;;;;;19.42;8.63;;;;;;;12.03;100.00;102304.69;5306525;28;20035;-88
2022/01/01 05:52:11;;;;;;;16.27;7.60;;;;;;;12.03;100.00;102301.16;5312492;28;20032;-88
2022/01/01 05:54:42;;;;;;;20.05;8.48;;;;;;;12.04;100.00;102301.03;5313138;28;20025;-88
2022/01/01 05:57:14;;;;;;;16.42;8.75;;;;;;;12.01;100.00;102301.28;5314247;28;20110;-89
2022/01/01 05:59:45;;;;;;;14.68;7.30;;;;;;;12.00;100.00;102291.53;5313061;28;20024;-89
2022/01/01 06:02:16;;;;;;;16.88;7.50;;;;;;;12.03;100.00;102303.84;5312291;28;20114;-87
2022/01/01 06:04:48;;;;;;;16.02;7.03;;;;;;;12.04;100.00;102289.47;5308114;28;20041;-88
2022/01/01 06:07:19;;;;;;;16.23;6.93;;;;;;;12.02;100.00;102286.91;5305340;28;20029;-88
2022/01/01 06:09:50;;;;;;;13.65;7.18;;;;;;;12.01;100.00;102285.22;5306371;28;20035;-87
2022/01/01 06:12:21;;;;;;;15.02;7.07;;;;;;;12.02;100.00;102288.75;5305500;28;20050;-87
2022/01/01 06:14:53;;;;;;;18.85;6.68;;;;;;;11.95;100.00;102296.38;5305295;28;20031;-87
2022/01/01 06:17:24;;;;;;;13.60;6.68;;;;;;;11.86;100.00;102289.88;5305281;28;20051;-87
2022/01/01 06:19:55;;;;;;;17.92;7.20;;;;;;;11.72;100.00;102292.72;5305418;28;20021;-87
2022/01/01 06:22:27;;;;;;;18.20;7.40;;;;;;;11.59;100.00;102275.88;5304489;28;20370;-87
2022/01/01 06:24:58;;;;;;;13.13;6.95;;;;;;;11.50;100.00;102277.41;5304636;28;20025;-87
2022/01/01 06:27:29;;;;;;;15.65;6.97;;;;;;;11.40;100.00;102279.94;5305008;28;20099;-87
2022/01/01 06:30:01;;;;;;;14.10;6.47;;;;;;;11.41;100.00;102296.81;5304725;28;20029;-87
2022/01/01 06:32:32;;;;;;;16.60;6.90;;;;;;;11.36;100.00;102310.53;5304660;28;20032;-87
2022/01/01 06:35:04;;;;;;;19.70;6.95;;;;;;;11.40;100.00;102293.28;5304586;28;20123;-87
2022/01/01 06:37:35;;;;;;;16.02;7.13;;;;;;;11.44;100.00;102301.94;5303119;28;20367;-87
2022/01/01 06:40:07;;;;;;;15.85;6.72;;;;;;;11.41;100.00;102286.97;5302134;28;20024;-87
2022/01/01 06:42:39;;;;;;;13.48;6.60;;;;;;;11.42;100.00;102298.53;5283029;28;20033;-86
2022/01/01 06:45:10;;;;;;;15.20;7.13;;;;;;;11.31;100.00;102302.00;5286477;28;20020;-88
2022/01/01 06:47:41;;;;;;;15.07;6.30;;;;;;;11.27;100.00;102295.13;5286662;28;20036;-89
2022/01/01 06:50:12;;;;;;;17.25;7.28;;;;;;;11.26;100.00;102301.47;5285221;28;20025;-88
2022/01/01 06:52:45;;;;;;;14.18;6.10;;;;;;;11.17;100.00;102294.97;5285441;28;20023;-87
2022/01/01 06:55:16;;;;;;;17.40;5.93;;;;;;;11.20;100.00;102293.88;5286391;28;20437;-87
2022/01/01 06:57:48;;;;;;;14.82;6.00;;;;;;;11.19;100.00;102301.06;5287293;28;20100;-86
2022/01/01 07:00:19;;;;;;;14.80;6.50;;;;;;;11.25;100.00;102305.09;5287075;28;20040;-87
2022/01/01 07:02:51;;;;;;;13.88;5.72;;;;;;;11.30;100.00;102303.78;5300388;28;20027;-88
2022/01/01 07:05:22;;;;;;;15.90;6.00;;;;;;;11.36;100.00;102299.84;5308409;28;20040;-87
2022/01/01 07:07:53;;;;;;;15.27;6.35;;;;;;;11.37;100.00;102308.69;5314159;28;20021;-87
2022/01/01 07:10:25;;;;;;;17.00;5.85;;;;;;;11.41;100.00;102315.50;5319310;28;20044;-86
2022/01/01 07:12:56;;;;;;;16.27;6.15;;;;;;;11.43;100.00;102321.59;5321099;28;20031;-86
2022/01/01 07:15:27;;;;;;;14.38;5.63;;;;;;;11.42;100.00;102326.09;5321972;28;20035;-86
2022/01/01 07:17:59;;;;;;;14.10;5.40;;;;;;;11.39;100.00;102326.31;5321522;28;20027;-86
2022/01/01 07:20:30;;;;;;;11.65;5.18;;;;;;;11.43;100.00;102325.13;5318547;28;20013;-86
2022/01/01 07:23:02;;;;;;;13.05;5.53;;;;;;;11.43;100.00;102316.25;5314293;28;20092;-85
2022/01/01 07:25:33;;;;;;;15.48;5.53;;;;;;;11.41;100.00;102308.34;5314437;28;20024;-87
2022/01/01 07:28:05;;;;;;;14.70;5.65;;;;;;;11.40;100.00;102316.50;5312326;28;20469;-87
2022/01/01 07:30:36;;;;;;;11.23;5.30;;;;;;;11.42;100.00;102325.25;5312660;28;20023;-87
2022/01/01 07:33:07;;;;;;;15.60;5.82;;;;;;;11.42;100.00;102325.25;5329952;28;20020;-87
2022/01/01 07:35:39;;;;;;;12.75;5.60;;;;;;;11.41;100.00;102329.72;5331362;28;20021;-85
2022/01/01 07:38:11;;;;;;;13.40;5.80;;;;;;;11.41;100.00;102336.88;5330012;28;20051;-88
2022/01/01 07:40:42;;;;;;;13.07;5.40;;;;;;;11.40;100.00;102333.38;5329303;28;20025;-86
2022/01/01 07:43:15;;;;;;;13.77;5.82;;;;;;;11.39;100.00;102344.16;5315323;28;20037;-88
2022/01/01 07:45:47;;;;;;;12.80;5.88;;;;;;;11.38;100.00;102345.13;5312109;28;20027;-87
2022/01/01 07:48:18;;;;;;;11.90;5.00;;;;;;;11.40;100.00;102352.06;5308574;28;20025;-85
2022/01/01 07:50:49;;;;;;;10.35;4.95;;;;;;;11.39;100.00;102347.69;5309429;28;20032;-86
2022/01/01 07:53:20;;;;;;;12.73;4.95;;;;;;;11.39;100.00;102349.50;5308735;28;20024;-87
2022/01/01 07:55:52;;;;;;;11.45;4.97;;;;;;;11.42;100.00;102349.28;5308502;28;20040;-86
2022/01/01 07:58:23;;;;;;;15.05;4.95;;;;;;;11.39;100.00;102342.34;5309162;28;20013;-87
2022/01/01 08:00:54;;;;;;;16.77;5.28;;;;;;;11.44;100.00;102350.03;5310290;28;20068;-87
2022/01/01 08:03:26;;;;;;;12.02;5.60;;;;;;;11.42;100.00;102350.13;5308769;28;20040;-87
2022/01/01 08:05:57;;;;;;;14.18;5.63;;;;;;;11.43;100.00;102349.19;5309389;28;20020;-86
2022/01/01 08:08:28;;;;;;;12.80;5.68;;;;;;;11.45;100.00;102343.72;5308933;28;20416;-87
2022/01/01 08:11:00;;;;;;;16.65;5.50;;;;;;;11.46;100.00;102334.72;5308003;28;20052;-86
2022/01/01 08:13:35;;;;;;;13.70;5.82;;;;;;;11.49;100.00;102342.53;5305994;28;20016;-85
2022/01/01 08:16:07;;;;;;;13.13;5.38;;;;;;;11.51;100.00;102343.28;5307002;28;20025;-85
2022/01/01 08:18:39;;;;;;;12.63;5.97;;;;;;;11.54;100.00;102354.59;5307571;28;20067;-85
2022/01/01 08:21:10;;;;;;;15.32;5.50;;;;;;;11.56;100.00;102359.81;5306734;28;20031;-85
2022/01/01 08:23:42;;;;;;;15.50;5.70;;;;;;;11.58;100.00;102354.38;5307719;28;20028;-85
2022/01/01 08:26:13;;;;;;;14.80;5.35;;;;;;;11.56;100.00;102345.63;5310506;28;20033;-87
2022/01/01 08:28:45;;;;;;;11.57;5.18;;;;;;;11.59;100.00;102348.91;5309511;28;20033;-86
2022/01/01 08:31:16;;;;;;;15.43;5.07;;;;;;;11.61;100.00;102352.31;5308182;28;20079;-86
2022/01/01 08:33:47;;;;;;;13.10;4.75;;;;;;;11.65;100.00;102355.63;5321074;28;20021;-86
2022/01/01 08:36:19;;;;;;;10.55;5.47;;;;;;;11.60;100.00;102353.28;5319721;28;20032;-86
2022/01/01 08:38:50;;;;;;;10.60;5.80;;;;;;;11.61;100.00;102351.47;5319190;28;20036;-85
2022/01/01 08:41:21;;;;;;;15.98;5.53;;;;;;;11.61;100.00;102346.13;5311383;28;20028;-86
2022/01/01 08:43:53;;;;;;;17.85;6.05;;;;;;;11.61;100.00;102362.16;5308655;28;20027;-86
2022/01/01 08:46:24;;;;;;;10.63;5.68;;;;;;;11.60;100.00;102352.44;5306264;28;20020;-86
2022/01/01 08:48:56;;;;;;;13.00;5.95;;;;;;;11.56;100.00;102349.13;5307425;28;20032;-86
2022/01/01 08:51:28;;;;;;;13.32;6.13;;;;;;;11.54;100.00;102351.06;5306571;28;20029;-88
2022/01/01 08:54:00;;;;;;;14.32;6.18;;;;;;;11.52;100.00;102366.38;5307429;28;20546;-86
2022/01/01 08:56:32;;;;;;;16.48;6.47;;;;;;;11.55;100.00;102368.78;5306740;28;20093;-86
2022/01/01 08:59:04;;;;;;;15.07;6.35;;;;;;;11.54;100.00;102367.94;5306738;28;20477;-86
2022/01/01 09:01:35;;;;;;;13.65;6.20;;;;;;;11.52;100.00;102353.00;5306977;28;20107;-85
2022/01/01 09:04:06;;;;;;;14.27;6.53;;;;;;;11.49;100.00;102342.53;5306244;28;20526;-86
2022/01/01 09:06:38;;;;;;;11.57;6.28;;;;;;;11.52;100.00;102345.00;5306447;28;20052;-85
2022/01/01 09:09:10;;;;;;;11.82;6.65;;;;;;;11.58;100.00;102351.69;5306551;28;20012;-85
2022/01/01 09:11:41;;;;;;;27.73;7.82;;;;;;;11.57;100.00;102342.84;5306775;28;20323;-86
2022/01/01 09:14:13;;;;;;;14.18;6.47;;;;;;;11.60;100.00;102341.75;5305370;28;20028;-85
2022/01/01 09:16:44;;;;;;;15.32;7.53;;;;;;;11.68;100.00;102342.88;5306232;28;20032;-86
2022/01/01 09:19:18;;;;;;;15.93;6.05;;;;;;;11.71;100.00;102339.13;5306027;28;20020;-86
2022/01/01 09:21:50;;;;;;;11.27;6.38;;;;;;;11.70;100.00;102337.44;5305314;28;20017;-87
2022/01/01 09:24:21;;;;;;;12.75;6.88;;;;;;;11.73;100.00;102337.22;5305948;28;20135;-88
2022/01/01 09:26:52;;;;;;;14.20;6.97;;;;;;;11.79;100.00;102333.22;5304542;28;20024;-88
2022/01/01 09:29:24;;;;;;;15.60;6.90;;;;;;;11.81;100.00;102337.47;5303544;28;20025;-87
2022/01/01 09:31:58;;;;;;;14.80;7.07;;;;;;;11.85;100.00;102338.09;5283164;28;20048;-88
2022/01/01 09:34:29;;;;;;;14.88;6.95;;;;;;;11.87;100.00;102336.19;5284495;28;20069;-86
2022/01/01 09:37:01;;;;;;;14.40;6.97;;;;;;;11.89;100.00;102342.28;5284279;28;20062;-87
2022/01/01 09:39:32;;;;;;;15.32;7.00;;;;;;;11.85;100.00;102330.94;5284193;28;20040;-86
2022/01/01 09:42:04;;;;;;;12.60;6.80;;;;;;;11.93;100.00;102341.09;5284106;28;20019;-86
2022/01/01 09:44:39;;;;;;;14.60;6.68;;;;;;;11.95;100.00;102344.50;5284139;28;20061;-86
2022/01/01 09:47:11;;;;;;;13.40;7.03;;;;;;;11.92;100.00;102320.66;5285279;28;20048;-86
2022/01/01 09:49:46;;;;;;;11.13;6.45;;;;;;;11.90;100.00;102334.16;5286794;28;20051;-86
2022/01/01 09:52:17;;;;;;;15.20;7.60;;;;;;;11.89;100.00;102327.06;5286299;28;20371;-86
2022/01/01 09:54:48;;;;;;;15.75;7.80;;;;;;;11.77;100.00;102319.13;5300405;28;20021;-85
2022/01/01 09:57:20;;;;;;;15.77;6.60;;;;;;;11.83;100.00;102316.84;5284865;28;20112;-86
2022/01/01 09:59:51;;;;;;;12.90;7.10;;;;;;;11.86;100.00;102329.97;5284704;28;20048;-87
2022/01/01 10:02:22;;;;;;;15.75;7.00;;;;;;;11.86;100.00;102326.44;5282860;28;20107;-86
2022/01/01 10:04:54;;;;;;;12.52;6.55;;;;;;;11.88;100.00;102311.97;5283646;28;20045;-86
2022/01/01 10:07:28;;;;;;;14.07;7.05;;;;;;;11.90;100.00;102309.19;5285023;28;20020;-86
2022/01/01 10:10:23;;;;;;;14.35;6.43;;;;;;;11.94;100.00;102310.72;5293103;28;20095;-86
2022/01/01 10:12:55;;;;;;;11.93;6.70;;;;;;;11.94;100.00;102300.03;5305143;28;20100;-86
2022/01/01 10:15:26;;;;;;;10.95;6.43;;;;;;;11.99;100.00;102308.56;5305283;28;20111;-87
2022/01/01 10:17:57;;;;;;;13.45;6.60;;;;;;;11.97;100.00;102294.44;5305811;28;20020;-85
2022/01/01 10:20:35;;;;;;;11.15;6.55;;;;;;;11.95;100.00;102293.69;5306567;28;20020;-86
2022/01/01 10:23:15;;;;;;;8.70;5.75;;;;;;;12.09;100.00;102295.31;5311595;28;20082;-85
2022/01/01 10:28:37;;;;;;;10.88;6.03;;;;;;;12.24;100.00;102275.44;5310828;28;20020;-86
2022/01/01 10:31:08;;;;;;;11.13;6.50;;;;;;;12.21;100.00;102278.34;5314591;28;20027;-84
2022/01/01 10:33:46;;;;;;;10.18;6.00;;;;;;;12.26;100.00;102278.84;5328027;28;20005;-85
2022/01/01 10:36:27;;;;;;;10.82;6.20;;;;;;;12.30;100.00;102277.63;5326027;28;20032;-86
2022/01/01 10:39:28;;;;;;;16.55;6.50;;;;;;;12.47;100.00;102267.44;5324357;28;20012;-86
2022/01/01 10:42:03;;;;;;;9.98;5.90;;;;;;;12.55;100.00;102278.41;5300575;28;20096;-86
2022/01/01 10:44:42;;;;;;;11.27;5.95;;;;;;;12.60;100.00;102276.19;5305654;28;20447;-86
2022/01/01 10:47:17;;;;;;;11.27;5.68;;;;;;;12.68;100.00;102265.75;5305963;28;20101;-86
2022/01/01 10:50:02;;;;;;;10.98;5.53;;;;;;;12.73;100.00;102275.22;5304071;28;20029;-87
2022/01/01 10:52:36;;;;;;;14.35;6.18;;;;;;;12.80;100.00;102255.06;5305662;28;20043;-87
2022/01/01 10:55:08;;;;;;;7.70;5.60;;;;;;;12.85;100.00;102256.38;5310258;28;20505;-87
2022/01/01 10:57:42;;;;;;;10.95;5.57;;;;;;;12.80;100.00;102247.03;5307203;28;20021;-86
2022/01/01 11:00:20;;;;;;;10.38;5.15;;;;;;;12.78;100.00;102230.19;5307018;28;20359;-87
2022/01/01 11:02:56;;;;;;;11.48;5.38;;;;;;;12.75;100.00;102235.81;5303811;28;20052;-87
2022/01/01 11:05:29;;;;;;;8.73;5.47;;;;;;;12.77;100.00;102244.56;5306477;28;20031;-87
2022/01/01 11:08:03;;;;;;;9.55;5.80;;;;;;;12.70;100.00;102238.00;5304620;28;20025;-87
2022/01/01 11:10:36;;;;;;;9.15;5.45;;;;;;;12.80;100.00;102239.00;5312310;28;20496;-87
2022/01/01 11:13:09;;;;;;;11.98;5.80;;;;;;;12.97;100.00;102249.19;5314811;28;20028;-86
2022/01/01 11:15:40;;;;;;;9.48;5.03;;;;;;;13.18;100.00;102246.59;5312338;28;20062;-87
2022/01/01 11:18:12;;;;;;;8.27;5.05;;;;;;;13.68;100.00;102243.41;5311510;28;20178;-87
2022/01/01 11:20:44;;;;;;;6.90;4.28;;;;;;;14.23;100.00;102234.31;5306355;28;20017;-87
2022/01/01 11:23:16;;;;;;;7.68;4.25;;;;;;;14.66;100.00;102238.66;5302024;28;20035;-86
2022/01/01 11:25:47;;;;;;;9.95;4.95;;;;;;;14.57;100.00;102232.25;5304268;28;20016;-86
2022/01/01 11:28:20;;;;;;;9.80;4.40;;;;;;;15.06;100.00;102217.16;5305601;28;20029;-87
2022/01/01 11:30:57;;;;;;;9.05;4.45;;;;;;;15.25;100.00;102224.41;5305061;28;20019;-87
2022/01/01 11:33:43;;;;;;;10.48;3.85;;;;;;;15.61;100.00;102208.56;5309290;28;20029;-87
2022/01/01 11:36:22;;;;;;;6.90;4.13;;;;;;;16.53;100.00;102217.88;5308110;28;20182;-87
2022/01/01 11:38:54;;;;;;;7.13;3.65;;;;;;;16.84;100.00;102222.16;5306448;28;20330;-87